createdAt,value
2022-12-01T00:01:38.055Z,50.00
2022-12-01T00:04:06.449Z,36.42
2022-12-01T00:06:34.909Z,36.45
2022-12-01T00:09:21.562Z,52.97
2022-12-01T00:11:50.177Z,41.83
2022-12-01T00:14:18.623Z,46.13
2022-12-01T00:16:47.173Z,44.67
2022-12-01T00:19:15.611Z,35.88
2022-12-01T00:21:45.604Z,38.88
2022-12-01T00:24:13.975Z,45.53
2022-12-01T00:26:42.469Z,39.10
2022-12-01T00:29:10.948Z,39.92
2022-12-01T00:31:39.444Z,37.33
2022-12-01T00:34:21.241Z,44.08
2022-12-01T00:36:49.782Z,41.10
2022-12-01T00:39:18.231Z,37.17
2022-12-01T00:41:46.695Z,44.22
2022-12-01T00:44:15.082Z,42.40
2022-12-01T00:46:43.425Z,52.42
2022-12-01T00:49:13.687Z,43.28
2022-12-01T00:51:42.101Z,49.20
2022-12-01T00:54:10.535Z,50.47
2022-12-01T00:56:39.002Z,50.85
2022-12-01T00:59:07.333Z,40.42
2022-12-01T01:01:35.923Z,45.17
2022-12-01T01:04:04.911Z,55.78
2022-12-01T01:06:33.337Z,55.88
2022-12-01T01:09:01.754Z,56.92
2022-12-01T01:11:30.103Z,55.72
2022-12-01T01:13:59.756Z,46.95
2022-12-01T01:16:28.702Z,48.60
2022-12-01T01:18:58.233Z,54.75
2022-12-01T01:21:27.211Z,57.47
2022-12-01T01:23:56.309Z,56.47
2022-12-01T01:26:27.590Z,78.43
2022-12-01T01:28:58.115Z,55.10
2022-12-01T01:31:28.345Z,69.15
2022-12-01T01:33:58.004Z,78.25
2022-12-01T01:36:27.288Z,85.35
2022-12-01T01:38:55.890Z,77.50
2022-12-01T01:41:24.396Z,80.40
2022-12-01T01:43:56.312Z,66.95
2022-12-01T01:46:33.005Z,55.17
2022-12-01T01:49:05.000Z,72.10
2022-12-01T01:51:53.685Z,82.57
2022-12-01T01:54:32.249Z,74.25
2022-12-01T01:57:02.146Z,66.22
2022-12-01T01:59:43.409Z,69.18
2022-12-01T02:02:12.976Z,67.78
2022-12-01T02:04:56.692Z,88.78
2022-12-01T02:07:25.511Z,75.47
2022-12-01T02:09:55.226Z,79.97
2022-12-01T02:12:49.787Z,66.03
2022-12-01T02:15:33.502Z,67.68
2022-12-01T02:18:20.266Z,67.25
2022-12-01T02:21:22.753Z,78.50
2022-12-01T02:23:54.160Z,74.60
2022-12-01T02:26:50.671Z,80.68
2022-12-01T02:29:41.238Z,63.40
2022-12-01T02:32:23.438Z,60.53
2022-12-01T02:35:13.274Z,72.57
2022-12-01T02:38:03.217Z,58.70
2022-12-01T02:40:39.436Z,78.40
2022-12-01T02:43:20.176Z,70.50
2022-12-01T02:45:55.351Z,64.43
2022-12-01T02:48:28.946Z,66.57
2022-12-01T02:51:12.570Z,58.13
2022-12-01T02:53:41.081Z,76.20
2022-12-01T02:56:14.660Z,60.20
2022-12-01T02:58:43.740Z,75.97
2022-12-01T03:01:20.596Z,62.17
2022-12-01T03:04:24.212Z,66.50
2022-12-01T03:07:10.771Z,71.10
2022-12-01T03:09:45.289Z,62.45
2022-12-01T03:12:29.045Z,52.78
2022-12-01T03:15:09.252Z,64.43
2022-12-01T03:17:53.606Z,70.53
2022-12-01T03:20:37.533Z,70.43
2022-12-01T03:23:21.152Z,66.38
2022-12-01T03:25:52.301Z,78.68
2022-12-01T03:28:28.793Z,63.33
2022-12-01T03:31:03.648Z,70.95
2022-12-01T03:33:37.370Z,66.90
2022-12-01T03:36:41.967Z,56.70
2022-12-01T03:39:18.208Z,62.47
2022-12-01T03:42:30.203Z,63.25
2022-12-01T03:45:04.715Z,60.27
2022-12-01T03:47:37.129Z,68.95
2022-12-01T03:50:08.069Z,67.95
2022-12-01T03:53:06.701Z,74.65
2022-12-01T03:55:41.886Z,68.85
2022-12-01T03:58:21.179Z,63.72
2022-12-01T04:00:53.255Z,60.92
2022-12-01T04:03:25.150Z,58.92
2022-12-01T04:05:53.667Z,66.65
2022-12-01T04:08:22.054Z,61.38
2022-12-01T04:10:50.450Z,60.97
2022-12-01T04:13:23.283Z,58.95
2022-12-01T04:15:53.395Z,66.35
2022-12-01T04:18:22.109Z,59.85
2022-12-01T04:20:50.702Z,69.47
2022-12-01T04:23:37.984Z,66.88
2022-12-01T04:26:09.986Z,62.17
2022-12-01T04:28:41.102Z,53.22
2022-12-01T04:31:09.558Z,59.80
2022-12-01T04:33:38.052Z,55.97
2022-12-01T04:36:06.782Z,55.60
2022-12-01T04:38:37.050Z,55.97
2022-12-01T04:41:10.627Z,58.22
2022-12-01T04:43:39.861Z,63.90
2022-12-01T04:46:08.674Z,56.33
2022-12-01T04:48:38.762Z,42.28
2022-12-01T04:51:08.570Z,50.88
2022-12-01T04:53:38.394Z,51.47
2022-12-01T04:56:07.197Z,50.20
2022-12-01T04:58:39.927Z,56.38
2022-12-01T05:01:11.687Z,46.97
2022-12-01T05:03:41.902Z,60.75
2022-12-01T05:06:16.871Z,45.90
2022-12-01T05:08:45.280Z,54.72
2022-12-01T05:11:14.566Z,56.40
2022-12-01T05:13:45.442Z,52.33
2022-12-01T05:16:16.480Z,39.88
2022-12-01T05:18:50.460Z,54.13
2022-12-01T05:21:18.888Z,50.92
2022-12-01T05:23:47.307Z,58.92
2022-12-01T05:26:15.826Z,52.30
2022-12-01T05:28:44.556Z,48.10
2022-12-01T05:31:12.987Z,52.53
2022-12-01T05:33:41.464Z,43.47
2022-12-01T05:36:09.980Z,40.38
2022-12-01T05:38:38.515Z,57.15
2022-12-01T05:41:06.883Z,35.45
2022-12-01T05:43:35.319Z,38.15
2022-12-01T05:46:04.073Z,47.92
2022-12-01T05:48:32.554Z,45.25
2022-12-01T05:51:07.817Z,45.35
2022-12-01T05:53:36.255Z,40.78
2022-12-01T05:56:05.925Z,54.80
2022-12-01T05:58:35.660Z,47.90
2022-12-01T06:01:04.299Z,56.40
2022-12-01T06:03:32.801Z,48.22
2022-12-01T06:06:01.463Z,51.47
2022-12-01T06:08:29.901Z,49.17
2022-12-01T06:10:58.323Z,38.58
2022-12-01T06:13:26.812Z,40.00
2022-12-01T06:15:59.554Z,51.53
2022-12-01T06:18:28.058Z,61.58
2022-12-01T06:20:56.536Z,46.55
2022-12-01T06:23:30.030Z,43.70
2022-12-01T06:25:58.968Z,38.83
2022-12-01T06:28:27.485Z,38.63
2022-12-01T06:31:02.512Z,38.97
2022-12-01T06:33:31.945Z,43.65
2022-12-01T06:36:05.518Z,41.17
2022-12-01T06:38:35.475Z,47.15
2022-12-01T06:41:04.440Z,36.90
2022-12-01T06:43:36.486Z,53.42
2022-12-01T06:46:06.022Z,54.30
2022-12-01T06:48:34.772Z,39.95
2022-12-01T06:51:03.544Z,42.53
2022-12-01T06:53:32.983Z,45.83
2022-12-01T06:56:02.567Z,52.95
2022-12-01T06:58:31.194Z,56.72
2022-12-01T07:01:01.150Z,48.80
2022-12-01T07:03:30.607Z,40.05
2022-12-01T07:06:00.507Z,49.53
2022-12-01T07:08:30.151Z,44.15
2022-12-01T07:11:09.462Z,36.63
2022-12-01T07:13:38.671Z,40.05
2022-12-01T07:16:08.712Z,47.47
2022-12-01T07:18:38.532Z,46.80
2022-12-01T07:21:16.260Z,57.85
2022-12-01T07:23:44.982Z,39.15
2022-12-01T07:26:15.994Z,48.92
2022-12-01T07:28:45.042Z,52.65
2022-12-01T07:31:16.450Z,63.85
2022-12-01T07:33:45.426Z,51.80
2022-12-01T07:36:14.550Z,47.88
2022-12-01T07:38:43.055Z,57.30
2022-12-01T07:41:14.417Z,65.88
2022-12-01T07:43:43.223Z,49.15
2022-12-01T07:46:22.641Z,36.17
2022-12-01T07:48:52.788Z,70.78
2022-12-01T07:51:22.955Z,44.75
2022-12-01T07:53:52.523Z,44.70
2022-12-01T07:56:22.065Z,50.08
2022-12-01T07:58:50.568Z,55.70
2022-12-01T08:01:24.894Z,50.42
2022-12-01T08:03:56.554Z,51.70
2022-12-01T08:06:26.415Z,61.25
2022-12-01T08:08:56.050Z,50.25
2022-12-01T08:11:27.048Z,54.47
2022-12-01T08:13:55.976Z,47.45
2022-12-01T08:16:25.247Z,43.40
2022-12-01T08:18:54.895Z,45.03
2022-12-01T08:21:24.065Z,40.25
2022-12-01T08:23:54.711Z,59.45
2022-12-01T08:26:24.790Z,47.22
2022-12-01T08:28:53.368Z,53.78
2022-12-01T08:31:25.639Z,40.03
2022-12-01T08:33:54.613Z,39.08
2022-12-01T08:36:24.040Z,41.10
2022-12-01T08:38:55.001Z,46.63
2022-12-01T08:41:25.290Z,45.78
2022-12-01T08:43:59.112Z,46.35
2022-12-01T08:46:35.334Z,49.03
2022-12-01T08:49:05.629Z,46.70
2022-12-01T08:51:34.057Z,72.28
2022-12-01T08:54:02.858Z,46.58
2022-12-01T08:56:37.387Z,41.78
2022-12-01T08:59:06.016Z,55.85
2022-12-01T09:01:35.786Z,35.95
2022-12-01T09:04:08.493Z,47.55
2022-12-01T09:06:43.424Z,45.92
2022-12-01T09:09:16.326Z,51.40
2022-12-01T09:11:45.868Z,52.40
2022-12-01T09:14:16.158Z,50.53
2022-12-01T09:16:49.200Z,49.38
2022-12-01T09:19:24.252Z,55.88
2022-12-01T09:21:53.430Z,44.55
2022-12-01T09:24:23.221Z,46.20
2022-12-01T09:26:55.895Z,43.95
2022-12-01T09:29:24.498Z,50.33
2022-12-01T09:31:56.359Z,43.58
2022-12-01T09:34:25.560Z,44.28
2022-12-01T09:36:58.546Z,54.33
2022-12-01T09:39:27.948Z,39.15
2022-12-01T09:42:08.269Z,43.88
2022-12-01T09:45:04.979Z,46.95
2022-12-01T09:47:37.580Z,52.85
2022-12-01T09:50:20.086Z,43.30
2022-12-01T09:52:57.269Z,44.55
2022-12-01T09:55:26.698Z,43.67
2022-12-01T09:57:58.409Z,51.78
2022-12-01T10:00:31.432Z,46.05
2022-12-01T10:03:12.958Z,42.05
2022-12-01T10:06:26.782Z,50.67
2022-12-01T10:08:54.859Z,42.28
2022-12-01T10:11:35.509Z,43.25
2022-12-01T10:14:06.230Z,51.47
2022-12-01T10:16:54.419Z,44.05
2022-12-01T10:19:33.867Z,56.65
2022-12-01T10:22:26.603Z,41.67
2022-12-01T10:25:01.064Z,66.78
2022-12-01T10:27:29.481Z,68.07
2022-12-01T10:30:15.359Z,47.97
2022-12-01T10:33:17.154Z,50.95
2022-12-01T10:35:45.941Z,73.93
2022-12-01T10:38:26.814Z,49.33
2022-12-01T10:40:59.860Z,49.42
2022-12-01T10:43:53.849Z,56.75
2022-12-01T10:46:28.752Z,55.25
2022-12-01T10:48:59.787Z,57.08
2022-12-01T10:51:28.253Z,56.13
2022-12-01T10:54:07.958Z,56.28
2022-12-01T10:56:40.591Z,76.07
2022-12-01T10:59:46.761Z,52.75
2022-12-01T11:02:19.578Z,51.67
2022-12-01T11:04:53.283Z,52.13
2022-12-01T11:07:26.933Z,63.00
2022-12-01T11:10:15.444Z,55.15
2022-12-01T11:12:52.161Z,47.97
2022-12-01T11:15:41.406Z,51.50
2022-12-01T11:18:33.496Z,43.40
2022-12-01T11:21:14.882Z,43.25
2022-12-01T11:23:50.091Z,53.50
2022-12-01T11:26:27.185Z,56.45
2022-12-01T11:29:21.850Z,52.60
2022-12-01T11:31:53.103Z,42.53
2022-12-01T11:34:34.581Z,57.30
2022-12-01T11:37:17.051Z,43.50
2022-12-01T11:42:30.806Z,49.63
2022-12-01T11:45:23.658Z,41.50
2022-12-01T11:48:18.739Z,42.92
2022-12-01T11:51:22.936Z,49.20
2022-12-01T11:54:13.606Z,50.83
2022-12-01T11:56:44.108Z,60.05
2022-12-01T11:59:24.651Z,41.65
2022-12-01T12:02:18.118Z,52.28
2022-12-01T12:05:31.354Z,37.10
2022-12-01T12:08:21.754Z,49.70
2022-12-01T12:10:58.728Z,47.35
2022-12-01T12:13:57.674Z,36.38
2022-12-01T12:17:00.586Z,34.22
2022-12-01T12:22:44.322Z,46.20
2022-12-01T12:25:23.941Z,45.55
2022-12-01T12:28:03.715Z,47.95
2022-12-01T12:30:40.999Z,42.22
2022-12-01T12:33:41.926Z,35.05
2022-12-01T12:36:25.360Z,40.55
2022-12-01T12:39:15.084Z,33.20
2022-12-01T12:41:48.608Z,38.15
2022-12-01T12:44:39.814Z,40.30
2022-12-01T12:47:26.835Z,48.65
2022-12-01T12:50:17.178Z,40.83
2022-12-01T12:52:49.947Z,42.47
2022-12-01T12:55:24.785Z,46.10
2022-12-01T12:58:20.952Z,37.13
2022-12-01T13:00:55.176Z,48.03
2022-12-01T13:03:33.974Z,37.13
2022-12-01T13:06:09.477Z,38.38
2022-12-01T13:08:40.561Z,63.15
2022-12-01T13:11:18.617Z,42.67
2022-12-01T13:14:16.521Z,49.17
2022-12-01T13:16:50.109Z,39.70
2022-12-01T13:19:31.354Z,38.58
2022-12-01T13:22:01.821Z,38.03
2022-12-01T13:24:31.495Z,47.85
2022-12-01T13:27:05.097Z,50.20
2022-12-01T13:29:44.069Z,43.53
2022-12-01T13:32:40.279Z,36.72
2022-12-01T13:35:27.706Z,50.63
2022-12-01T13:38:30.264Z,55.25
2022-12-01T13:41:23.910Z,55.78
2022-12-01T13:44:24.675Z,41.00
2022-12-01T13:47:10.069Z,39.35
2022-12-01T13:49:43.712Z,35.78
2022-12-01T13:52:18.332Z,51.40
2022-12-01T13:55:10.776Z,35.53
2022-12-01T13:57:44.578Z,34.88
2022-12-01T14:00:31.859Z,44.53
2022-12-01T14:03:12.539Z,33.08
2022-12-01T14:05:53.317Z,31.10
2022-12-01T14:08:34.232Z,34.80
2022-12-01T14:11:29.624Z,36.65
2022-12-01T14:14:11.983Z,40.92
2022-12-01T14:19:41.699Z,41.67
2022-12-01T14:22:33.411Z,34.90
2022-12-01T14:25:06.027Z,43.63
2022-12-01T14:27:40.163Z,40.47
2022-12-01T14:30:44.890Z,47.85
2022-12-01T14:33:53.675Z,45.55
2022-12-01T14:36:51.673Z,41.00
2022-12-01T14:39:33.504Z,45.75
2022-12-01T14:42:12.336Z,34.20
2022-12-01T14:44:48.261Z,39.60
2022-12-01T14:47:22.954Z,39.17
2022-12-01T14:50:15.288Z,40.13
2022-12-01T14:52:47.009Z,35.65
2022-12-01T14:55:20.962Z,40.42
2022-12-01T14:57:51.706Z,32.13
2022-12-01T15:00:22.946Z,36.50
2022-12-01T15:02:59.391Z,38.37
2022-12-01T15:05:31.214Z,38.33
2022-12-01T15:08:40.412Z,41.22
2022-12-01T15:11:10.693Z,43.50
2022-12-01T15:13:50.279Z,58.42
2022-12-01T15:16:28.708Z,37.42
2022-12-01T15:18:58.458Z,34.75
2022-12-01T15:21:31.874Z,37.35
2022-12-01T15:24:27.489Z,60.33
2022-12-01T15:27:03.488Z,43.13
2022-12-01T15:29:42.802Z,39.03
2022-12-01T15:32:17.152Z,51.58
2022-12-01T15:34:48.665Z,40.40
2022-12-01T15:37:26.858Z,49.72
2022-12-01T15:43:05.417Z,38.70
2022-12-01T15:45:57.321Z,53.17
2022-12-01T15:48:34.457Z,50.88
2022-12-01T15:51:20.056Z,45.83
2022-12-01T15:53:59.108Z,53.03
2022-12-01T15:56:37.984Z,43.45
2022-12-01T15:59:12.464Z,60.33
2022-12-01T16:01:43.622Z,46.35
2022-12-01T16:04:35.483Z,41.27
2022-12-01T16:07:10.495Z,43.17
2022-12-01T16:09:42.946Z,56.28
2022-12-01T16:12:14.458Z,47.85
2022-12-01T16:15:01.314Z,51.47
2022-12-01T16:17:48.123Z,47.97
2022-12-01T16:20:26.686Z,46.70
2022-12-01T16:23:01.707Z,43.20
2022-12-01T16:25:37.984Z,41.30
2022-12-01T16:28:07.544Z,43.97
2022-12-01T16:30:39.936Z,48.22
2022-12-01T16:33:29.621Z,46.10
2022-12-01T16:35:59.843Z,51.10
2022-12-01T16:38:29.431Z,45.83
2022-12-01T16:41:02.269Z,44.70
2022-12-01T16:43:30.710Z,43.15
2022-12-01T16:46:04.086Z,38.47
2022-12-01T16:48:32.629Z,38.35
2022-12-01T16:51:03.135Z,39.67
2022-12-01T16:53:31.988Z,50.45
2022-12-01T16:56:02.435Z,44.95
2022-12-01T16:58:30.931Z,34.13
2022-12-01T17:00:59.825Z,42.40
2022-12-01T17:03:28.816Z,54.50
2022-12-01T17:06:00.352Z,48.00
2022-12-01T17:08:32.770Z,54.58
2022-12-01T17:11:06.062Z,47.70
2022-12-01T17:13:35.632Z,56.97
2022-12-01T17:16:07.149Z,58.72
2022-12-01T17:18:37.673Z,49.30
2022-12-01T17:21:09.628Z,49.10
2022-12-01T17:23:38.952Z,58.40
2022-12-01T17:26:13.789Z,50.25
2022-12-01T17:28:42.444Z,38.33
2022-12-01T17:31:11.212Z,54.65
2022-12-01T17:33:40.163Z,50.63
2022-12-01T17:36:11.553Z,62.97
2022-12-01T17:38:42.881Z,49.65
2022-12-01T17:41:24.800Z,51.10
2022-12-01T17:43:53.186Z,48.50
2022-12-01T17:46:21.609Z,57.95
2022-12-01T17:48:50.097Z,57.13
2022-12-01T17:51:18.473Z,58.08
2022-12-01T17:53:47.254Z,41.33
2022-12-01T17:56:17.354Z,60.55
2022-12-01T17:58:45.884Z,42.42
2022-12-01T18:01:16.447Z,57.25
2022-12-01T18:03:45.408Z,53.70
2022-12-01T18:06:14.482Z,61.22
2022-12-01T18:08:43.272Z,64.45
2022-12-01T18:11:14.927Z,53.65
2022-12-01T18:13:46.785Z,64.35
2022-12-01T18:16:24.629Z,51.55
2022-12-01T18:18:54.500Z,59.35
2022-12-01T18:21:24.352Z,64.53
2022-12-01T18:23:55.549Z,49.47
2022-12-01T18:26:25.099Z,50.40
2022-12-01T18:28:59.632Z,55.50
2022-12-01T18:31:30.243Z,51.88
2022-12-01T18:34:02.959Z,56.92
2022-12-01T18:36:34.057Z,47.45
2022-12-01T18:39:04.869Z,47.92
2022-12-01T18:41:33.980Z,53.67
2022-12-01T18:44:03.269Z,46.67
2022-12-01T18:46:32.417Z,47.95
2022-12-01T18:49:02.652Z,50.20
2022-12-01T18:51:33.577Z,53.15
2022-12-01T18:54:04.062Z,53.47
2022-12-01T18:56:33.560Z,54.67
2022-12-01T18:59:07.584Z,57.85
2022-12-01T19:01:39.979Z,54.67
2022-12-01T19:04:09.403Z,51.92
2022-12-01T19:06:40.280Z,59.60
2022-12-01T19:09:11.177Z,47.30
2022-12-01T19:11:40.767Z,54.47
2022-12-01T19:14:14.813Z,46.22
2022-12-01T19:16:44.421Z,71.55
2022-12-01T19:19:13.059Z,55.40
2022-12-01T19:21:42.930Z,55.70
2022-12-01T19:24:11.492Z,62.85
2022-12-01T19:26:39.932Z,50.92
2022-12-01T19:29:08.446Z,52.55
2022-12-01T19:31:37.046Z,52.15
2022-12-01T19:34:05.656Z,49.13
2022-12-01T19:36:34.118Z,79.00
2022-12-01T19:39:07.233Z,54.58
2022-12-01T19:41:35.957Z,55.90
2022-12-01T19:44:04.414Z,51.03
2022-12-01T19:46:32.901Z,58.15
2022-12-01T19:49:01.729Z,38.90
2022-12-01T19:51:34.897Z,51.38
2022-12-01T19:54:05.100Z,43.10
2022-12-01T19:56:33.552Z,54.70
2022-12-01T19:59:02.130Z,56.08
2022-12-01T20:01:30.703Z,51.30
2022-12-01T20:03:59.753Z,57.80
2022-12-01T20:06:30.246Z,58.28
2022-12-01T20:09:01.027Z,43.63
2022-12-01T20:11:31.549Z,82.78
2022-12-01T20:13:59.957Z,54.30
2022-12-01T20:16:30.370Z,57.53
2022-12-01T20:19:03.489Z,50.33
2022-12-01T20:21:42.071Z,48.83
2022-12-01T20:24:13.139Z,59.50
2022-12-01T20:26:48.202Z,53.30
2022-12-01T20:29:26.312Z,46.70
2022-12-01T20:31:56.825Z,51.13
2022-12-01T20:34:28.720Z,46.75
2022-12-01T20:36:57.295Z,46.42
2022-12-01T20:39:26.904Z,52.88
2022-12-01T20:41:55.415Z,46.95
2022-12-01T20:44:23.854Z,46.60
2022-12-01T20:46:52.488Z,54.38
2022-12-01T20:49:20.945Z,46.40
2022-12-01T20:51:49.764Z,50.63
2022-12-01T20:54:28.360Z,63.05
2022-12-01T20:56:58.268Z,62.20
2022-12-01T20:59:27.469Z,58.40
2022-12-01T21:01:56.084Z,57.78
2022-12-01T21:04:24.616Z,54.67
2022-12-01T21:06:57.816Z,52.92
2022-12-01T21:09:26.399Z,50.08
2022-12-01T21:12:16.834Z,46.20
2022-12-01T21:14:53.540Z,52.70
2022-12-01T21:17:28.257Z,40.03
2022-12-01T21:20:25.150Z,58.75
2022-12-01T21:22:54.157Z,44.65
2022-12-01T21:25:24.400Z,58.83
2022-12-01T21:27:56.531Z,51.08
2022-12-01T21:30:26.444Z,51.67
2022-12-01T21:33:14.449Z,54.53
2022-12-01T21:35:42.880Z,55.45
2022-12-01T21:38:16.470Z,61.88
2022-12-01T21:40:47.825Z,60.13
2022-12-01T21:43:23.861Z,54.45
2022-12-01T21:45:58.405Z,51.90
2022-12-01T21:48:35.498Z,65.40
2022-12-01T21:51:23.019Z,56.65
2022-12-01T21:53:55.559Z,55.80
2022-12-01T21:56:26.567Z,72.78
2022-12-01T21:58:58.872Z,53.50
2022-12-01T22:01:32.223Z,51.97
2022-12-01T22:04:05.446Z,55.60
2022-12-01T22:06:43.690Z,53.25
2022-12-01T22:09:26.011Z,57.83
2022-12-01T22:12:01.289Z,61.97
2022-12-01T22:14:33.557Z,61.00
2022-12-01T22:19:44.663Z,65.57
2022-12-01T22:22:13.105Z,74.85
2022-12-01T22:24:50.784Z,86.70
2022-12-01T22:27:35.727Z,70.30
2022-12-01T22:30:10.154Z,66.15
2022-12-01T22:32:57.592Z,55.88
2022-12-01T22:35:28.966Z,68.45
2022-12-01T22:38:06.522Z,68.70
2022-12-01T22:40:51.389Z,68.78
2022-12-01T22:43:43.000Z,62.40
2022-12-01T22:46:32.595Z,89.17
2022-12-01T22:49:10.714Z,79.75
2022-12-01T22:52:14.127Z,89.03
2022-12-01T22:54:44.808Z,81.78
2022-12-01T22:57:24.308Z,85.82
2022-12-01T22:59:54.069Z,81.68
2022-12-01T23:02:26.952Z,78.63
2022-12-01T23:05:22.336Z,76.95
2022-12-01T23:07:52.179Z,85.18
2022-12-01T23:10:26.355Z,81.60
2022-12-01T23:12:57.003Z,95.95
2022-12-01T23:15:32.131Z,97.93
2022-12-01T23:18:14.960Z,75.32
2022-12-01T23:20:46.055Z,110.43
2022-12-01T23:23:19.815Z,116.90
2022-12-01T23:25:50.448Z,81.57
2022-12-01T23:28:20.277Z,99.57
2022-12-01T23:30:52.894Z,111.22
2022-12-01T23:33:24.471Z,102.20
2022-12-01T23:35:59.978Z,75.53
2022-12-01T23:38:36.251Z,92.63
2022-12-01T23:41:08.348Z,79.72
2022-12-01T23:43:42.754Z,99.38
2022-12-01T23:46:12.815Z,90.10
2022-12-01T23:48:59.104Z,106.85
2022-12-01T23:51:30.380Z,91.97
2022-12-01T23:54:06.047Z,77.37
2022-12-01T23:56:37.905Z,90.30
2022-12-01T23:59:12.900Z,111.13
